Cruise inventory

MV Bon Entente 1/86

Cruise summary report

Cruise Info. 
Ship name (ship code)MV Bon Entente (74NB)
Cruise identifier1/86
Cruise period1986-09-14 — 1986-10-06
StatusCompleted
Port of departureBarry, United Kingdom
Port of returnBarry, United Kingdom
ObjectivesThe cruise was aimed at sampling the physical, chemical, and biological structures associated with cold filaments of upwelled water that extend from the Iberian coast using moored current meters, satellite-tracked drifters, CTD with rosette and SeaSoar. Charter replacing cancelled RRS Challenger cruise 5/86.
Chief scientistEric Desmond Barton (University of Wales, Bangor School of Ocean Sciences)
Ocean/sea areas 
GeneralBay of Biscay
North East Atlantic Ocean (limit 40W)
Strait of Gibraltar (Mediterranean Sea)
Measurements 
Physical oceanography 
Surface measurements underway (T,S)
BathythermographQuantity: number of profiles = 25
Water bottle stationsDescription: S surface only
CTD stationsQuantity: number of stations = 36
Subsurface temperature and salinity measurementsDescription: Seasoar pseudo-profiles
Current metersQuantity: 4
Description: 13 days
Surface drifters/drifting buoysQuantity: number of deployments = 8
Description: Argos
Chemical oceanography 
PhosphateQuantity: 36
NitrateQuantity: 36
Biology and fisheries 
Phytoplankton pigs (eg chlorophyll, fluorescence)Description: Fluorescence
PhytoplanktonQuantity: 36
Data held at BODC 
Series/Profiles 
741  CTD in towed or autonomous underwater vehicle
Chlorophyll pigment concentrations in water bodies
Vertical spatial coordinates
Salinity of the water column
Temperature of the water column
Chlorophyll pigment concentrations in water bodies
Vertical spatial coordinates
Salinity of the water column
Temperature of the water column

BODC idDate/TimeLocationDoc.
4989691986-09-22 08:12 40° 45' 19" N  10° 40' 43" W  View metadata report for BODC series reference number 498969
4989701986-09-22 08:24 40° 46' 53" N  10° 40' 58" W  View metadata report for BODC series reference number 498970
4989821986-09-22 08:36 40° 48' 27" N  10° 41' 14" W  View metadata report for BODC series reference number 498982
4989941986-09-22 08:48 40° 50' 1" N  10° 41' 30" W  View metadata report for BODC series reference number 498994
4990081986-09-22 09:00 40° 51' 35" N  10° 41' 42" W  View metadata report for BODC series reference number 499008
4990211986-09-22 09:12 40° 53' 7" N  10° 41' 42" W  View metadata report for BODC series reference number 499021
4990331986-09-22 09:24 40° 54' 39" N  10° 41' 44" W  View metadata report for BODC series reference number 499033
4990451986-09-22 09:36 40° 56' 10" N  10° 41' 45" W  View metadata report for BODC series reference number 499045
4990571986-09-22 09:48 40° 57' 40" N  10° 41' 46" W  View metadata report for BODC series reference number 499057
4990691986-09-22 10:00 40° 59' 7" N  10° 41' 47" W  View metadata report for BODC series reference number 499069
4990701986-09-22 10:12 41° 0' 34" N  10° 41' 49" W  View metadata report for BODC series reference number 499070
4990821986-09-22 10:24 41° 2' 1" N  10° 41' 51" W  View metadata report for BODC series reference number 499082
4990941986-09-22 10:36 41° 3' 28" N  10° 41' 53" W  View metadata report for BODC series reference number 499094
4991011986-09-22 10:48 41° 4' 56" N  10° 41' 52" W  View metadata report for BODC series reference number 499101
4991131986-09-22 11:00 41° 6' 24" N  10° 41' 49" W  View metadata report for BODC series reference number 499113
4991251986-09-22 11:12 41° 7' 52" N  10° 41' 48" W  View metadata report for BODC series reference number 499125
4991371986-09-22 11:24 41° 9' 20" N  10° 41' 42" W  View metadata report for BODC series reference number 499137
4991491986-09-22 11:36 41° 10' 46" N  10° 41' 38" W  View metadata report for BODC series reference number 499149
4991501986-09-22 11:48 41° 12' 10" N  10° 41' 33" W  View metadata report for BODC series reference number 499150
4991621986-09-22 12:00 41° 13' 33" N  10° 41' 29" W  View metadata report for BODC series reference number 499162
4991741986-09-22 12:12 41° 14' 56" N  10° 41' 26" W  View metadata report for BODC series reference number 499174
4991861986-09-22 12:24 41° 16' 19" N  10° 41' 22" W  View metadata report for BODC series reference number 499186
4991981986-09-22 12:36 41° 17' 42" N  10° 41' 17" W  View metadata report for BODC series reference number 499198
4992051986-09-22 12:48 41° 19' 5" N  10° 41' 13" W  View metadata report for BODC series reference number 499205
4992171986-09-22 13:00 41° 20' 25" N  10° 41' 9" W  View metadata report for BODC series reference number 499217
4992291986-09-22 13:12 41° 21' 43" N  10° 41' 5" W  View metadata report for BODC series reference number 499229
4992301986-09-22 13:24 41° 23' 1" N  10° 41' 0" W  View metadata report for BODC series reference number 499230
4992421986-09-22 13:36 41° 24' 18" N  10° 40' 55" W  View metadata report for BODC series reference number 499242
4992541986-09-22 13:48 41° 25' 35" N  10° 40' 49" W  View metadata report for BODC series reference number 499254
4992661986-09-22 14:00 41° 26' 57" N  10° 40' 43" W  View metadata report for BODC series reference number 499266
4992781986-09-22 14:12 41° 28' 18" N  10° 40' 37" W  View metadata report for BODC series reference number 499278
4992911986-09-22 14:24 41° 29' 42" N  10° 40' 31" W  View metadata report for BODC series reference number 499291
4993091986-09-22 14:36 41° 31' 11" N  10° 40' 28" W  View metadata report for BODC series reference number 499309
4993101986-09-22 14:48 41° 32' 40" N  10° 40' 22" W  View metadata report for BODC series reference number 499310
4993221986-09-22 15:00 41° 34' 9" N  10° 40' 18" W  View metadata report for BODC series reference number 499322
4993341986-09-22 15:12 41° 35' 37" N  10° 40' 15" W  View metadata report for BODC series reference number 499334
4993461986-09-22 15:24 41° 37' 6" N  10° 40' 13" W  View metadata report for BODC series reference number 499346
4993581986-09-22 15:36 41° 38' 35" N  10° 40' 10" W  View metadata report for BODC series reference number 499358
4993711986-09-22 15:48 41° 40' 4" N  10° 40' 8" W  View metadata report for BODC series reference number 499371
4993831986-09-22 16:00 41° 41' 34" N  10° 40' 4" W  View metadata report for BODC series reference number 499383
4993951986-09-22 16:12 41° 43' 4" N  10° 40' 0" W  View metadata report for BODC series reference number 499395
4994021986-09-22 16:24 41° 44' 34" N  10° 39' 55" W  View metadata report for BODC series reference number 499402
4994141986-09-22 16:36 41° 46' 4" N  10° 39' 52" W  View metadata report for BODC series reference number 499414
4994261986-09-22 16:48 41° 47' 35" N  10° 39' 49" W  View metadata report for BODC series reference number 499426
4994381986-09-22 17:00 41° 49' 5" N  10° 39' 47" W  View metadata report for BODC series reference number 499438
4994511986-09-22 17:12 41° 50' 35" N  10° 39' 45" W  View metadata report for BODC series reference number 499451
4994631986-09-22 17:24 41° 52' 5" N  10° 39' 43" W  View metadata report for BODC series reference number 499463
4994751986-09-22 17:36 41° 53' 36" N  10° 39' 40" W  View metadata report for BODC series reference number 499475
4994871986-09-22 17:48 41° 55' 3" N  10° 39' 42" W  View metadata report for BODC series reference number 499487
4994991986-09-22 18:00 41° 56' 31" N  10° 39' 43" W  View metadata report for BODC series reference number 499499
4995061986-09-22 18:12 41° 57' 58" N  10° 39' 47" W  View metadata report for BODC series reference number 499506
4995181986-09-22 18:24 41° 59' 26" N  10° 39' 51" W  View metadata report for BODC series reference number 499518
4995311986-09-22 18:36 42° 0' 55" N  10° 39' 46" W  View metadata report for BODC series reference number 499531
4995431986-09-22 18:48 42° 2' 22" N  10° 39' 58" W  View metadata report for BODC series reference number 499543
4995551986-09-22 19:00 42° 3' 49" N  10° 40' 9" W  View metadata report for BODC series reference number 499555
4995671986-09-22 19:12 42° 5' 16" N  10° 40' 23" W  View metadata report for BODC series reference number 499567
4995791986-09-22 19:24 42° 6' 44" N  10° 40' 34" W  View metadata report for BODC series reference number 499579
4995801986-09-22 19:36 42° 8' 12" N  10° 40' 46" W  View metadata report for BODC series reference number 499580
4995921986-09-22 19:48 42° 9' 34" N  10° 40' 42" W  View metadata report for BODC series reference number 499592
4996111986-09-22 20:00 42° 10' 58" N  10° 40' 40" W  View metadata report for BODC series reference number 499611
4996231986-09-22 20:12 42° 12' 21" N  10° 40' 40" W  View metadata report for BODC series reference number 499623
4996351986-09-22 20:24 42° 13' 46" N  10° 40' 42" W  View metadata report for BODC series reference number 499635
4996471986-09-21 23:00 41° 30' 3" N  11° 8' 20" W  View metadata report for BODC series reference number 499647
4996591986-09-21 23:12 41° 28' 51" N  11° 8' 45" W  View metadata report for BODC series reference number 499659
4996601986-09-21 23:24 41° 27' 39" N  11° 8' 52" W  View metadata report for BODC series reference number 499660
4996721986-09-21 23:36 41° 26' 27" N  11° 9' 1" W  View metadata report for BODC series reference number 499672
4996841986-09-21 23:48 41° 25' 13" N  11° 9' 11" W  View metadata report for BODC series reference number 499684
4996961986-09-22 00:00 41° 23' 59" N  11° 9' 26" W  View metadata report for BODC series reference number 499696
4997031986-09-22 00:12 41° 22' 42" N  11° 9' 34" W  View metadata report for BODC series reference number 499703
4997151986-09-22 00:24 41° 21' 21" N  11° 9' 28" W  View metadata report for BODC series reference number 499715
4997271986-09-22 00:36 41° 20' 1" N  11° 9' 18" W  View metadata report for BODC series reference number 499727
4997391986-09-22 00:48 41° 18' 41" N  11° 9' 12" W  View metadata report for BODC series reference number 499739
4997401986-09-22 01:00 41° 17' 20" N  11° 9' 7" W  View metadata report for BODC series reference number 499740
4997521986-09-22 01:12 41° 16' 0" N  11° 9' 0" W  View metadata report for BODC series reference number 499752
4997641986-09-22 01:24 41° 14' 39" N  11° 8' 56" W  View metadata report for BODC series reference number 499764
4997761986-09-22 01:36 41° 13' 19" N  11° 8' 52" W  View metadata report for BODC series reference number 499776
4997881986-09-22 01:48 41° 12' 0" N  11° 8' 49" W  View metadata report for BODC series reference number 499788
4998071986-09-22 02:00 41° 10' 35" N  11° 8' 48" W  View metadata report for BODC series reference number 499807
4998191986-09-22 02:12 41° 9' 10" N  11° 8' 48" W  View metadata report for BODC series reference number 499819
4998201986-09-22 02:24 41° 7' 46" N  11° 8' 48" W  View metadata report for BODC series reference number 499820
4998321986-09-22 02:36 41° 6' 20" N  11° 8' 49" W  View metadata report for BODC series reference number 499832
4998441986-09-22 02:48 41° 4' 55" N  11° 8' 49" W  View metadata report for BODC series reference number 499844
4998561986-09-22 03:00 41° 3' 40" N  11° 8' 51" W  View metadata report for BODC series reference number 499856
4998681986-09-22 03:12 41° 2' 21" N  11° 8' 49" W  View metadata report for BODC series reference number 499868
4998811986-09-22 03:24 41° 0' 54" N  11° 8' 47" W  View metadata report for BODC series reference number 499881
4998931986-09-22 03:36 40° 59' 28" N  11° 8' 47" W  View metadata report for BODC series reference number 499893
4999001986-09-22 03:48 40° 57' 56" N  11° 8' 38" W  View metadata report for BODC series reference number 499900
4999121986-09-22 04:00 40° 56' 21" N  11° 8' 25" W  View metadata report for BODC series reference number 499912
4999241986-09-22 04:12 40° 54' 46" N  11° 8' 10" W  View metadata report for BODC series reference number 499924
4999361986-09-22 04:24 40° 53' 11" N  11° 7' 56" W  View metadata report for BODC series reference number 499936
4999481986-09-22 04:36 40° 51' 36" N  11° 7' 40" W  View metadata report for BODC series reference number 499948
4999611986-09-22 04:48 40° 50' 1" N  11° 7' 23" W  View metadata report for BODC series reference number 499961
4999731986-09-22 05:00 40° 48' 27" N  11° 7' 3" W  View metadata report for BODC series reference number 499973
4999851986-09-22 05:12 40° 46' 54" N  11° 6' 39" W  View metadata report for BODC series reference number 499985
4999971986-09-22 05:24 40° 45' 23" N  11° 6' 1" W  View metadata report for BODC series reference number 499997
5000051986-09-22 05:36 40° 43' 58" N  11° 5' 7" W  View metadata report for BODC series reference number 500005
5000171986-09-24 16:00 40° 41' 18" N  9° 43' 53" W  View metadata report for BODC series reference number 500017
5000291986-09-24 16:12 40° 40' 9" N  9° 44' 55" W  View metadata report for BODC series reference number 500029
5000301986-09-24 16:24 40° 38' 58" N  9° 45' 55" W  View metadata report for BODC series reference number 500030
5000421986-09-24 16:36 40° 37' 49" N  9° 46' 56" W  View metadata report for BODC series reference number 500042
5000541986-09-24 16:48 40° 36' 41" N  9° 47' 57" W  View metadata report for BODC series reference number 500054
5000661986-09-24 17:00 40° 35' 33" N  9° 48' 57" W  View metadata report for BODC series reference number 500066
5000781986-09-24 17:12 40° 34' 25" N  9° 49' 59" W  View metadata report for BODC series reference number 500078
5000911986-09-24 17:24 40° 33' 16" N  9° 50' 57" W  View metadata report for BODC series reference number 500091
5001091986-09-24 17:36 40° 32' 5" N  9° 51' 54" W  View metadata report for BODC series reference number 500109
5001101986-09-24 17:48 40° 30' 56" N  9° 52' 48" W  View metadata report for BODC series reference number 500110
5001221986-09-24 18:00 40° 29' 47" N  9° 53' 42" W  View metadata report for BODC series reference number 500122
5001341986-09-24 18:12 40° 28' 37" N  9° 54' 40" W  View metadata report for BODC series reference number 500134
5001461986-09-24 18:24 40° 27' 34" N  9° 55' 27" W  View metadata report for BODC series reference number 500146
5001581986-09-24 18:36 40° 26' 31" N  9° 56' 11" W  View metadata report for BODC series reference number 500158
5001711986-09-24 18:48 40° 25' 27" N  9° 56' 51" W  View metadata report for BODC series reference number 500171
5001831986-09-24 19:00 40° 24' 18" N  9° 57' 43" W  View metadata report for BODC series reference number 500183
5001951986-09-24 19:12 40° 23' 0" N  9° 58' 27" W  View metadata report for BODC series reference number 500195
5002141986-09-24 19:36 40° 20' 21" N  9° 59' 55" W  View metadata report for BODC series reference number 500214
5002261986-09-24 19:48 40° 19' 3" N  10° 0' 40" W  View metadata report for BODC series reference number 500226
5002381986-09-24 20:00 40° 17' 38" N  10° 1' 7" W  View metadata report for BODC series reference number 500238
5002511986-09-24 20:12 40° 16' 13" N  10° 1' 27" W  View metadata report for BODC series reference number 500251
5002631986-09-24 20:24 40° 14' 44" N  10° 2' 0" W  View metadata report for BODC series reference number 500263
5002751986-09-24 20:36 40° 13' 12" N  10° 2' 32" W  View metadata report for BODC series reference number 500275
5002871986-09-24 20:48 40° 11' 41" N  10° 3' 4" W  View metadata report for BODC series reference number 500287
5002991986-09-24 21:00 40° 10' 8" N  10° 3' 30" W  View metadata report for BODC series reference number 500299
5003061986-09-24 21:12 40° 8' 36" N  10° 4' 0" W  View metadata report for BODC series reference number 500306
5003181986-09-24 21:24 40° 7' 4" N  10° 4' 29" W  View metadata report for BODC series reference number 500318
5003311986-09-24 21:36 40° 5' 33" N  10° 4' 58" W  View metadata report for BODC series reference number 500331
5003431986-09-24 21:48 40° 4' 1" N  10° 5' 31" W  View metadata report for BODC series reference number 500343
5003551986-09-24 22:00 40° 2' 30" N  10° 6' 8" W  View metadata report for BODC series reference number 500355
5003671986-09-24 22:12 40° 1' 0" N  10° 6' 44" W  View metadata report for BODC series reference number 500367
5003791986-09-24 22:24 39° 59' 28" N  10° 7' 17" W  View metadata report for BODC series reference number 500379
5003801986-09-24 22:36 39° 57' 56" N  10° 7' 46" W  View metadata report for BODC series reference number 500380
5003921986-09-24 22:48 39° 56' 22" N  10° 8' 8" W  View metadata report for BODC series reference number 500392
5004111986-09-24 23:00 39° 54' 51" N  10° 8' 37" W  View metadata report for BODC series reference number 500411
5004231986-09-24 23:12 39° 53' 19" N  10° 9' 4" W  View metadata report for BODC series reference number 500423
5004351986-09-24 23:24 39° 51' 46" N  10° 9' 30" W  View metadata report for BODC series reference number 500435
5004471986-09-24 23:36 39° 50' 14" N  10° 9' 57" W  View metadata report for BODC series reference number 500447
5004591986-09-24 23:48 39° 48' 42" N  10° 10' 27" W  View metadata report for BODC series reference number 500459
5004601986-09-25 00:00 39° 47' 13" N  10° 10' 58" W  View metadata report for BODC series reference number 500460
5004721986-09-25 00:12 39° 45' 45" N  10° 11' 30" W  View metadata report for BODC series reference number 500472
5004841986-09-25 00:24 39° 44' 16" N  10° 12' 1" W  View metadata report for BODC series reference number 500484
5004961986-09-25 00:36 39° 42' 47" N  10° 12' 36" W  View metadata report for BODC series reference number 500496
5005031986-09-25 00:48 39° 41' 18" N  10° 13' 6" W  View metadata report for BODC series reference number 500503
5005151986-09-25 01:00 39° 39' 47" N  10° 13' 32" W  View metadata report for BODC series reference number 500515
5005271986-09-25 01:12 39° 38' 17" N  10° 13' 58" W  View metadata report for BODC series reference number 500527
5005391986-09-25 01:24 39° 36' 46" N  10° 14' 21" W  View metadata report for BODC series reference number 500539
5005401986-09-25 01:36 39° 35' 15" N  10° 14' 39" W  View metadata report for BODC series reference number 500540
5005521986-09-25 01:48 39° 33' 43" N  10° 15' 11" W  View metadata report for BODC series reference number 500552
5005641986-09-25 02:00 39° 32' 12" N  10° 15' 43" W  View metadata report for BODC series reference number 500564
5005761986-09-25 02:12 39° 30' 41" N  10° 16' 11" W  View metadata report for BODC series reference number 500576
5005881986-09-25 02:24 39° 29' 8" N  10° 16' 37" W  View metadata report for BODC series reference number 500588
5006071986-09-25 02:36 39° 27' 39" N  10° 17' 1" W  View metadata report for BODC series reference number 500607
5006191986-09-25 02:48 39° 26' 11" N  10° 17' 26" W  View metadata report for BODC series reference number 500619
5006201986-09-25 03:00 39° 24' 43" N  10° 17' 55" W  View metadata report for BODC series reference number 500620
5006321986-09-25 03:12 39° 23' 15" N  10° 18' 24" W  View metadata report for BODC series reference number 500632
5006441986-09-25 03:24 39° 21' 46" N  10° 18' 55" W  View metadata report for BODC series reference number 500644
5006561986-09-25 03:36 39° 20' 17" N  10° 19' 25" W  View metadata report for BODC series reference number 500656
5006681986-09-25 03:48 39° 18' 47" N  10° 19' 55" W  View metadata report for BODC series reference number 500668
5006811986-09-25 04:00 39° 17' 19" N  10° 20' 29" W  View metadata report for BODC series reference number 500681
5006931986-09-25 04:12 39° 15' 51" N  10° 20' 58" W  View metadata report for BODC series reference number 500693
5007001986-09-25 04:24 39° 14' 22" N  10° 21' 27" W  View metadata report for BODC series reference number 500700
5007121986-09-25 04:36 39° 12' 54" N  10° 21' 57" W  View metadata report for BODC series reference number 500712
5007241986-09-25 04:48 39° 11' 22" N  10° 22' 35" W  View metadata report for BODC series reference number 500724
5007361986-09-25 05:00 39° 9' 51" N  10° 23' 14" W  View metadata report for BODC series reference number 500736
5007481986-09-25 05:12 39° 8' 18" N  10° 23' 46" W  View metadata report for BODC series reference number 500748
5007611986-09-25 05:24 39° 6' 46" N  10° 24' 23" W  View metadata report for BODC series reference number 500761
5007731986-09-25 05:36 39° 5' 16" N  10° 24' 59" W  View metadata report for BODC series reference number 500773
5007851986-09-25 05:48 39° 3' 45" N  10° 25' 36" W  View metadata report for BODC series reference number 500785
5007971986-09-25 06:00 39° 2' 13" N  10° 26' 9" W  View metadata report for BODC series reference number 500797
5008041986-09-25 06:12 39° 0' 43" N  10° 26' 39" W  View metadata report for BODC series reference number 500804
5008161986-09-25 06:24 38° 59' 12" N  10° 27' 9" W  View metadata report for BODC series reference number 500816
5002021986-09-24 19:24 40° 21' 40" N  9° 59' 9" W  View metadata report for BODC series reference number 500202
5008281986-09-25 06:36 38° 57' 41" N  10° 27' 41" W  View metadata report for BODC series reference number 500828
5008411986-09-25 06:48 38° 56' 9" N  10° 28' 8" W  View metadata report for BODC series reference number 500841
5008531986-09-25 07:00 38° 54' 37" N  10° 28' 41" W  View metadata report for BODC series reference number 500853
5008651986-09-25 07:12 38° 53' 6" N  10° 28' 56" W  View metadata report for BODC series reference number 500865
5008771986-09-25 07:24 38° 51' 32" N  10° 29' 3" W  View metadata report for BODC series reference number 500877
5008891986-09-25 07:36 38° 50' 4" N  10° 28' 46" W  View metadata report for BODC series reference number 500889
5008901986-09-25 07:48 38° 49' 0" N  10° 27' 37" W  View metadata report for BODC series reference number 500890
5009081986-09-25 08:00 38° 47' 55" N  10° 26' 27" W  View metadata report for BODC series reference number 500908
5009211986-09-25 08:12 38° 46' 49" N  10° 25' 19" W  View metadata report for BODC series reference number 500921
5009331986-09-25 08:24 38° 45' 48" N  10° 24' 7" W  View metadata report for BODC series reference number 500933
5009451986-09-25 08:36 38° 44' 43" N  10° 22' 57" W  View metadata report for BODC series reference number 500945
5009571986-09-25 08:48 38° 43' 41" N  10° 21' 45" W  View metadata report for BODC series reference number 500957
5009691986-09-25 09:00 38° 42' 42" N  10° 20' 31" W  View metadata report for BODC series reference number 500969
5009701986-09-25 09:12 38° 41' 40" N  10° 19' 18" W  View metadata report for BODC series reference number 500970
5009821986-09-25 09:24 38° 40' 37" N  10° 18' 7" W  View metadata report for BODC series reference number 500982
5009941986-09-25 09:36 38° 39' 36" N  10° 16' 55" W  View metadata report for BODC series reference number 500994
5010081986-09-25 09:48 38° 38' 36" N  10° 15' 40" W  View metadata report for BODC series reference number 501008
5010211986-09-25 10:00 38° 37' 37" N  10° 14' 38" W  View metadata report for BODC series reference number 501021
5010331986-09-25 10:12 38° 36' 29" N  10° 13' 29" W  View metadata report for BODC series reference number 501033
5010451986-09-25 10:24 38° 35' 19" N  10° 12' 20" W  View metadata report for BODC series reference number 501045
5010571986-09-25 10:36 38° 34' 8" N  10° 11' 11" W  View metadata report for BODC series reference number 501057
5010691986-09-25 10:48 38° 32' 57" N  10° 10' 1" W  View metadata report for BODC series reference number 501069
5010701986-09-25 11:00 38° 31' 46" N  10° 8' 51" W  View metadata report for BODC series reference number 501070
5010821986-09-25 11:12 38° 30' 35" N  10° 7' 44" W  View metadata report for BODC series reference number 501082
5010941986-09-25 11:24 38° 29' 23" N  10° 6' 39" W  View metadata report for BODC series reference number 501094
5011011986-09-25 11:36 38° 28' 10" N  10° 5' 31" W  View metadata report for BODC series reference number 501101
5011131986-09-25 11:48 38° 26' 56" N  10° 4' 21" W  View metadata report for BODC series reference number 501113
5011251986-09-25 12:00 38° 25' 42" N  10° 3' 13" W  View metadata report for BODC series reference number 501125
5011371986-09-25 12:12 38° 24' 34" N  10° 1' 57" W  View metadata report for BODC series reference number 501137
5011491986-09-25 12:24 38° 23' 37" N  10° 0' 32" W  View metadata report for BODC series reference number 501149
5011501986-09-25 12:36 38° 22' 43" N  9° 59' 4" W  View metadata report for BODC series reference number 501150
5011621986-09-25 12:48 38° 21' 41" N  9° 57' 40" W  View metadata report for BODC series reference number 501162
5011741986-09-25 13:00 38° 20' 39" N  9° 56' 17" W  View metadata report for BODC series reference number 501174
5011861986-09-25 13:12 38° 19' 37" N  9° 54' 56" W  View metadata report for BODC series reference number 501186
5011981986-09-25 13:24 38° 18' 25" N  9° 53' 45" W  View metadata report for BODC series reference number 501198
5012051986-09-25 13:36 38° 17' 14" N  9° 52' 31" W  View metadata report for BODC series reference number 501205
5012171986-09-25 13:48 38° 15' 46" N  9° 52' 0" W  View metadata report for BODC series reference number 501217
5012291986-09-25 14:00 38° 14' 10" N  9° 51' 58" W  View metadata report for BODC series reference number 501229
5012301986-09-25 14:12 38° 12' 33" N  9° 51' 58" W  View metadata report for BODC series reference number 501230
5012421986-09-25 14:24 38° 10' 56" N  9° 51' 54" W  View metadata report for BODC series reference number 501242
5012541986-09-25 14:36 38° 9' 19" N  9° 51' 49" W  View metadata report for BODC series reference number 501254
5012661986-09-25 14:48 38° 7' 44" N  9° 51' 45" W  View metadata report for BODC series reference number 501266
5012781986-09-25 15:00 38° 6' 8" N  9° 51' 41" W  View metadata report for BODC series reference number 501278
5012911986-09-25 15:12 38° 4' 31" N  9° 51' 34" W  View metadata report for BODC series reference number 501291
5013091986-09-25 15:24 38° 2' 57" N  9° 51' 27" W  View metadata report for BODC series reference number 501309
5013101986-09-25 15:36 38° 1' 21" N  9° 51' 20" W  View metadata report for BODC series reference number 501310
5013221986-09-25 15:48 37° 59' 46" N  9° 51' 16" W  View metadata report for BODC series reference number 501322
5013341986-09-25 16:00 37° 58' 14" N  9° 51' 11" W  View metadata report for BODC series reference number 501334
5013461986-09-25 16:12 37° 56' 42" N  9° 51' 7" W  View metadata report for BODC series reference number 501346
5013581986-09-25 16:24 37° 55' 10" N  9° 51' 3" W  View metadata report for BODC series reference number 501358
5013711986-09-25 16:36 37° 53' 39" N  9° 50' 57" W  View metadata report for BODC series reference number 501371
5013831986-09-25 16:48 37° 52' 9" N  9° 50' 53" W  View metadata report for BODC series reference number 501383
5013951986-09-25 17:00 37° 50' 37" N  9° 50' 48" W  View metadata report for BODC series reference number 501395
5014021986-09-25 17:12 37° 49' 7" N  9° 50' 39" W  View metadata report for BODC series reference number 501402
5014141986-09-25 17:24 37° 47' 34" N  9° 50' 31" W  View metadata report for BODC series reference number 501414
5014261986-09-25 17:36 37° 46' 2" N  9° 50' 25" W  View metadata report for BODC series reference number 501426
5014381986-09-25 17:48 37° 44' 29" N  9° 50' 17" W  View metadata report for BODC series reference number 501438
5014511986-09-25 18:00 37° 42' 56" N  9° 50' 10" W  View metadata report for BODC series reference number 501451
5014631986-09-25 18:12 37° 41' 23" N  9° 50' 9" W  View metadata report for BODC series reference number 501463
5014751986-09-25 18:24 37° 39' 49" N  9° 50' 13" W  View metadata report for BODC series reference number 501475
5014871986-09-25 18:36 37° 38' 19" N  9° 50' 15" W  View metadata report for BODC series reference number 501487
5014991986-09-25 18:48 37° 36' 51" N  9° 50' 21" W  View metadata report for BODC series reference number 501499
5015061986-09-25 19:00 37° 35' 22" N  9° 50' 28" W  View metadata report for BODC series reference number 501506
5015181986-09-25 19:12 37° 33' 53" N  9° 50' 34" W  View metadata report for BODC series reference number 501518
5015311986-09-25 19:24 37° 32' 25" N  9° 50' 39" W  View metadata report for BODC series reference number 501531
5015431986-09-25 19:36 37° 30' 54" N  9° 50' 38" W  View metadata report for BODC series reference number 501543
5015551986-09-26 00:24 37° 28' 3" N  10° 31' 30" W  View metadata report for BODC series reference number 501555
5015671986-09-26 00:36 37° 28' 52" N  10° 31' 34" W  View metadata report for BODC series reference number 501567
5015791986-09-26 00:48 37° 29' 58" N  10° 31' 37" W  View metadata report for BODC series reference number 501579
5015801986-09-26 01:00 37° 31' 5" N  10° 31' 34" W  View metadata report for BODC series reference number 501580
5015921986-09-26 01:12 37° 32' 19" N  10° 31' 34" W  View metadata report for BODC series reference number 501592
5016111986-09-26 01:24 37° 33' 40" N  10° 31' 32" W  View metadata report for BODC series reference number 501611
5016231986-09-26 01:36 37° 34' 58" N  10° 31' 30" W  View metadata report for BODC series reference number 501623
5016351986-09-26 01:48 37° 36' 15" N  10° 31' 27" W  View metadata report for BODC series reference number 501635
5016471986-09-26 02:00 37° 37' 31" N  10° 31' 21" W  View metadata report for BODC series reference number 501647
5016591986-09-26 02:12 37° 38' 51" N  10° 31' 17" W  View metadata report for BODC series reference number 501659
5016601986-09-26 02:24 37° 40' 8" N  10° 31' 15" W  View metadata report for BODC series reference number 501660
5016721986-09-26 02:36 37° 41' 25" N  10° 31' 11" W  View metadata report for BODC series reference number 501672
5016841986-09-26 02:48 37° 42' 41" N  10° 31' 9" W  View metadata report for BODC series reference number 501684
5016961986-09-26 03:00 37° 43' 57" N  10° 31' 8" W  View metadata report for BODC series reference number 501696
5017031986-09-26 03:12 37° 45' 11" N  10° 31' 8" W  View metadata report for BODC series reference number 501703
5017151986-09-26 03:24 37° 46' 29" N  10° 31' 8" W  View metadata report for BODC series reference number 501715
5017271986-09-26 03:36 37° 47' 42" N  10° 31' 7" W  View metadata report for BODC series reference number 501727
5017391986-09-26 03:48 37° 48' 54" N  10° 31' 5" W  View metadata report for BODC series reference number 501739
5017401986-09-26 04:00 37° 50' 12" N  10° 31' 4" W  View metadata report for BODC series reference number 501740
5017521986-09-26 04:12 37° 51' 24" N  10° 31' 7" W  View metadata report for BODC series reference number 501752
5017641986-09-26 04:24 37° 52' 38" N  10° 31' 9" W  View metadata report for BODC series reference number 501764
5017761986-09-26 04:36 37° 53' 56" N  10° 31' 10" W  View metadata report for BODC series reference number 501776
5017881986-09-26 04:48 37° 55' 12" N  10° 31' 10" W  View metadata report for BODC series reference number 501788
5018071986-09-26 05:00 37° 56' 30" N  10° 31' 9" W  View metadata report for BODC series reference number 501807
5018191986-09-26 05:12 37° 57' 46" N  10° 31' 7" W  View metadata report for BODC series reference number 501819
5018201986-09-26 05:24 37° 58' 57" N  10° 31' 6" W  View metadata report for BODC series reference number 501820
5018321986-09-26 14:00 37° 41' 34" N  10° 30' 52" W  View metadata report for BODC series reference number 501832
5018441986-09-26 14:12 37° 40' 29" N  10° 31' 8" W  View metadata report for BODC series reference number 501844
5018561986-09-26 14:24 37° 40' 12" N  10° 32' 16" W  View metadata report for BODC series reference number 501856
5018681986-09-26 14:36 37° 40' 49" N  10° 32' 55" W  View metadata report for BODC series reference number 501868
5018811986-09-26 14:48 37° 42' 0" N  10° 32' 43" W  View metadata report for BODC series reference number 501881
5018931986-09-26 15:00 37° 43' 20" N  10° 32' 26" W  View metadata report for BODC series reference number 501893
5019001986-09-26 15:12 37° 44' 49" N  10° 32' 8" W  View metadata report for BODC series reference number 501900
5019121986-09-26 15:24 37° 46' 14" N  10° 31' 34" W  View metadata report for BODC series reference number 501912
5019241986-09-26 15:36 37° 47' 36" N  10° 30' 47" W  View metadata report for BODC series reference number 501924
5019361986-09-26 15:48 37° 48' 57" N  10° 30' 2" W  View metadata report for BODC series reference number 501936
5019481986-09-26 16:00 37° 50' 21" N  10° 29' 16" W  View metadata report for BODC series reference number 501948
5019611986-09-26 16:12 37° 51' 46" N  10° 28' 48" W  View metadata report for BODC series reference number 501961
5019731986-09-26 16:24 37° 53' 9" N  10° 28' 40" W  View metadata report for BODC series reference number 501973
5019851986-09-26 16:36 37° 54' 32" N  10° 28' 35" W  View metadata report for BODC series reference number 501985
5019971986-09-26 16:48 37° 55' 55" N  10° 28' 31" W  View metadata report for BODC series reference number 501997
5020001986-09-26 17:00 37° 57' 15" N  10° 28' 28" W  View metadata report for BODC series reference number 502000
5020121986-09-26 17:12 37° 58' 37" N  10° 28' 24" W  View metadata report for BODC series reference number 502012
5020241986-09-26 17:24 38° 0' 4" N  10° 28' 21" W  View metadata report for BODC series reference number 502024
5020361986-09-26 17:36 38° 1' 31" N  10° 28' 20" W  View metadata report for BODC series reference number 502036
5020481986-09-26 17:48 38° 2' 53" N  10° 28' 20" W  View metadata report for BODC series reference number 502048
5020611986-09-26 18:00 38° 4' 19" N  10° 28' 19" W  View metadata report for BODC series reference number 502061
5020731986-09-26 18:12 38° 5' 46" N  10° 28' 16" W  View metadata report for BODC series reference number 502073
5020851986-09-26 18:24 38° 7' 15" N  10° 28' 12" W  View metadata report for BODC series reference number 502085
5020971986-09-26 18:36 38° 8' 44" N  10° 28' 10" W  View metadata report for BODC series reference number 502097
5021041986-09-26 18:48 38° 10' 14" N  10° 28' 7" W  View metadata report for BODC series reference number 502104
5021161986-09-26 19:00 38° 11' 45" N  10° 28' 5" W  View metadata report for BODC series reference number 502116
5021281986-09-26 19:12 38° 13' 15" N  10° 28' 2" W  View metadata report for BODC series reference number 502128
5021411986-09-26 19:24 38° 14' 45" N  10° 27' 57" W  View metadata report for BODC series reference number 502141
5021531986-09-26 19:36 38° 16' 15" N  10° 27' 51" W  View metadata report for BODC series reference number 502153
5021651986-09-26 19:48 38° 17' 45" N  10° 27' 47" W  View metadata report for BODC series reference number 502165
5021771986-09-26 20:00 38° 19' 16" N  10° 27' 46" W  View metadata report for BODC series reference number 502177
5021891986-09-26 20:12 38° 20' 46" N  10° 27' 46" W  View metadata report for BODC series reference number 502189
5021901986-09-26 20:24 38° 22' 18" N  10° 27' 45" W  View metadata report for BODC series reference number 502190
5022081986-09-26 20:36 38° 23' 46" N  10° 27' 37" W  View metadata report for BODC series reference number 502208
5022211986-09-26 20:48 38° 25' 14" N  10° 27' 31" W  View metadata report for BODC series reference number 502221
5022331986-09-26 21:00 38° 26' 43" N  10° 27' 25" W  View metadata report for BODC series reference number 502233
5022451986-09-26 21:12 38° 28' 11" N  10° 27' 19" W  View metadata report for BODC series reference number 502245
5022571986-09-26 21:24 38° 29' 40" N  10° 27' 12" W  View metadata report for BODC series reference number 502257
5022691986-09-26 21:36 38° 31' 9" N  10° 27' 3" W  View metadata report for BODC series reference number 502269
5022701986-09-26 21:48 38° 32' 39" N  10° 26' 55" W  View metadata report for BODC series reference number 502270
5022821986-09-26 22:00 38° 34' 9" N  10° 26' 48" W  View metadata report for BODC series reference number 502282
5022941986-09-26 22:12 38° 35' 37" N  10° 26' 39" W  View metadata report for BODC series reference number 502294
5023011986-09-26 22:24 38° 37' 6" N  10° 26' 29" W  View metadata report for BODC series reference number 502301
5023131986-09-26 22:36 38° 38' 34" N  10° 26' 19" W  View metadata report for BODC series reference number 502313
5023251986-09-26 22:48 38° 40' 2" N  10° 26' 8" W  View metadata report for BODC series reference number 502325
5023371986-09-26 23:00 38° 41' 30" N  10° 26' 0" W  View metadata report for BODC series reference number 502337
5023491986-09-26 23:12 38° 42' 57" N  10° 25' 52" W  View metadata report for BODC series reference number 502349
5023501986-09-26 23:24 38° 44' 28" N  10° 25' 59" W  View metadata report for BODC series reference number 502350
5023621986-09-26 23:36 38° 45' 58" N  10° 26' 10" W  View metadata report for BODC series reference number 502362
5023741986-09-26 23:48 38° 47' 31" N  10° 26' 17" W  View metadata report for BODC series reference number 502374
5023861986-09-27 00:00 38° 49' 4" N  10° 26' 22" W  View metadata report for BODC series reference number 502386
5023981986-09-27 00:12 38° 50' 34" N  10° 26' 30" W  View metadata report for BODC series reference number 502398
5024051986-09-27 00:24 38° 52' 5" N  10° 26' 33" W  View metadata report for BODC series reference number 502405
5024171986-09-27 00:36 38° 53' 36" N  10° 26' 33" W  View metadata report for BODC series reference number 502417
5024291986-09-27 00:48 38° 55' 7" N  10° 26' 31" W  View metadata report for BODC series reference number 502429
5024301986-09-27 01:00 38° 56' 36" N  10° 26' 30" W  View metadata report for BODC series reference number 502430
5024421986-09-27 01:12 38° 58' 7" N  10° 26' 27" W  View metadata report for BODC series reference number 502442
5024541986-09-27 01:24 38° 59' 36" N  10° 26' 27" W  View metadata report for BODC series reference number 502454
5024661986-09-27 01:36 39° 1' 6" N  10° 26' 26" W  View metadata report for BODC series reference number 502466
5024781986-09-27 01:48 39° 2' 36" N  10° 26' 24" W  View metadata report for BODC series reference number 502478
5024911986-09-27 02:00 39° 4' 6" N  10° 26' 23" W  View metadata report for BODC series reference number 502491
5025091986-09-27 02:12 39° 5' 36" N  10° 26' 22" W  View metadata report for BODC series reference number 502509
5025101986-09-27 02:24 39° 7' 8" N  10° 26' 19" W  View metadata report for BODC series reference number 502510
5025221986-09-27 02:36 39° 8' 39" N  10° 26' 22" W  View metadata report for BODC series reference number 502522
5025341986-09-27 02:48 39° 10' 10" N  10° 26' 23" W  View metadata report for BODC series reference number 502534
5025461986-09-27 03:00 39° 11' 40" N  10° 26' 25" W  View metadata report for BODC series reference number 502546
5025581986-09-27 03:12 39° 13' 10" N  10° 26' 27" W  View metadata report for BODC series reference number 502558
5025711986-09-27 03:24 39° 14' 37" N  10° 26' 28" W  View metadata report for BODC series reference number 502571
5025831986-09-27 03:36 39° 16' 7" N  10° 26' 34" W  View metadata report for BODC series reference number 502583
5025951986-09-27 03:48 39° 17' 40" N  10° 26' 39" W  View metadata report for BODC series reference number 502595
5026021986-09-27 04:00 39° 19' 12" N  10° 26' 40" W  View metadata report for BODC series reference number 502602
5026141986-09-27 04:12 39° 20' 42" N  10° 26' 45" W  View metadata report for BODC series reference number 502614
5026261986-09-27 04:24 39° 22' 12" N  10° 26' 49" W  View metadata report for BODC series reference number 502626
5026381986-09-27 04:36 39° 23' 43" N  10° 26' 53" W  View metadata report for BODC series reference number 502638
5026511986-09-27 04:48 39° 25' 13" N  10° 26' 56" W  View metadata report for BODC series reference number 502651
5026631986-09-27 05:00 39° 26' 44" N  10° 26' 59" W  View metadata report for BODC series reference number 502663
5026751986-09-27 05:12 39° 28' 14" N  10° 26' 59" W  View metadata report for BODC series reference number 502675
5026871986-09-27 05:24 39° 29' 39" N  10° 26' 57" W  View metadata report for BODC series reference number 502687
5026991986-09-27 05:36 39° 31' 1" N  10° 26' 55" W  View metadata report for BODC series reference number 502699
5027061986-09-27 05:48 39° 32' 25" N  10° 26' 49" W  View metadata report for BODC series reference number 502706
5027181986-09-27 06:00 39° 33' 51" N  10° 26' 44" W  View metadata report for BODC series reference number 502718
5027311986-09-27 06:12 39° 35' 17" N  10° 26' 42" W  View metadata report for BODC series reference number 502731
5027431986-09-27 06:24 39° 36' 46" N  10° 26' 39" W  View metadata report for BODC series reference number 502743
5027551986-09-27 06:36 39° 38' 16" N  10° 26' 35" W  View metadata report for BODC series reference number 502755
5027671986-09-27 06:48 39° 39' 48" N  10° 26' 36" W  View metadata report for BODC series reference number 502767
5027791986-09-27 07:00 39° 41' 18" N  10° 26' 37" W  View metadata report for BODC series reference number 502779
5027801986-09-27 07:12 39° 42' 47" N  10° 26' 43" W  View metadata report for BODC series reference number 502780
5027921986-09-27 07:24 39° 44' 13" N  10° 26' 56" W  View metadata report for BODC series reference number 502792
5028111986-09-27 07:36 39° 45' 40" N  10° 27' 9" W  View metadata report for BODC series reference number 502811
5028231986-09-27 07:48 39° 47' 5" N  10° 27' 21" W  View metadata report for BODC series reference number 502823
5028351986-09-27 08:00 39° 48' 32" N  10° 27' 36" W  View metadata report for BODC series reference number 502835
5028471986-09-27 08:12 39° 49' 57" N  10° 27' 39" W  View metadata report for BODC series reference number 502847
5028591986-09-27 08:24 39° 51' 19" N  10° 27' 33" W  View metadata report for BODC series reference number 502859
5028601986-09-27 08:36 39° 52' 48" N  10° 27' 45" W  View metadata report for BODC series reference number 502860
5028721986-09-27 08:48 39° 54' 18" N  10° 27' 55" W  View metadata report for BODC series reference number 502872
5028841986-09-27 09:00 39° 55' 46" N  10° 28' 6" W  View metadata report for BODC series reference number 502884
5028961986-09-27 09:12 39° 57' 14" N  10° 28' 19" W  View metadata report for BODC series reference number 502896
5029031986-09-27 09:24 39° 58' 41" N  10° 28' 30" W  View metadata report for BODC series reference number 502903
5029151986-09-27 09:36 40° 0' 7" N  10° 28' 42" W  View metadata report for BODC series reference number 502915
5029271986-09-27 09:48 40° 1' 34" N  10° 28' 54" W  View metadata report for BODC series reference number 502927
5029391986-09-27 10:00 40° 3' 1" N  10° 29' 6" W  View metadata report for BODC series reference number 502939
5029401986-09-27 10:12 40° 4' 28" N  10° 29' 18" W  View metadata report for BODC series reference number 502940
5029521986-09-27 10:24 40° 5' 55" N  10° 29' 31" W  View metadata report for BODC series reference number 502952
5029641986-09-27 10:36 40° 7' 22" N  10° 29' 42" W  View metadata report for BODC series reference number 502964
5029761986-09-27 10:48 40° 8' 49" N  10° 29' 55" W  View metadata report for BODC series reference number 502976
5029881986-09-27 11:00 40° 10' 16" N  10° 30' 7" W  View metadata report for BODC series reference number 502988
5030031986-09-27 11:12 40° 11' 42" N  10° 30' 13" W  View metadata report for BODC series reference number 503003
5030151986-09-22 20:36 42° 14' 25" N  10° 39' 6" W  View metadata report for BODC series reference number 503015
5030271986-09-22 20:48 42° 14' 25" N  10° 36' 58" W  View metadata report for BODC series reference number 503027
5030391986-09-22 21:00 42° 14' 24" N  10° 34' 48" W  View metadata report for BODC series reference number 503039
5030401986-09-22 21:12 42° 14' 21" N  10° 32' 37" W  View metadata report for BODC series reference number 503040
5030521986-09-22 21:24 42° 14' 19" N  10° 30' 28" W  View metadata report for BODC series reference number 503052
5030641986-09-22 21:36 42° 14' 17" N  10° 28' 31" W  View metadata report for BODC series reference number 503064
5030761986-09-22 21:48 42° 14' 14" N  10° 26' 33" W  View metadata report for BODC series reference number 503076
5030881986-09-22 22:00 42° 13' 19" N  10° 25' 19" W  View metadata report for BODC series reference number 503088
5031071986-09-24 01:00 42° 14' 26" N  9° 59' 4" W  View metadata report for BODC series reference number 503107
5031191986-09-24 01:12 42° 15' 26" N  9° 57' 44" W  View metadata report for BODC series reference number 503119
5031201986-09-24 01:24 42° 15' 33" N  9° 55' 50" W  View metadata report for BODC series reference number 503120
5031321986-09-24 01:36 42° 15' 35" N  9° 53' 57" W  View metadata report for BODC series reference number 503132
5031441986-09-24 01:48 42° 15' 40" N  9° 52' 3" W  View metadata report for BODC series reference number 503144
5031561986-09-24 02:00 42° 15' 45" N  9° 50' 8" W  View metadata report for BODC series reference number 503156
5031681986-09-24 02:12 42° 15' 46" N  9° 48' 15" W  View metadata report for BODC series reference number 503168
5031811986-09-24 02:24 42° 15' 34" N  9° 46' 21" W  View metadata report for BODC series reference number 503181
5031931986-09-24 02:36 42° 14' 58" N  9° 44' 37" W  View metadata report for BODC series reference number 503193
5032001986-09-24 02:48 42° 13' 53" N  9° 43' 19" W  View metadata report for BODC series reference number 503200
5032121986-09-21 11:24 41° 29' 41" N  9° 22' 21" W  View metadata report for BODC series reference number 503212
5032241986-09-21 11:36 41° 29' 25" N  9° 24' 3" W  View metadata report for BODC series reference number 503224
5032361986-09-21 11:48 41° 29' 25" N  9° 25' 52" W  View metadata report for BODC series reference number 503236
5032481986-09-21 12:00 41° 29' 27" N  9° 27' 42" W  View metadata report for BODC series reference number 503248
5032611986-09-21 12:12 41° 29' 28" N  9° 29' 31" W  View metadata report for BODC series reference number 503261
5032731986-09-21 12:24 41° 29' 29" N  9° 31' 21" W  View metadata report for BODC series reference number 503273
5032851986-09-21 12:36 41° 29' 29" N  9° 33' 10" W  View metadata report for BODC series reference number 503285
5032971986-09-21 12:48 41° 29' 30" N  9° 34' 59" W  View metadata report for BODC series reference number 503297
5033041986-09-21 13:00 41° 29' 28" N  9° 36' 48" W  View metadata report for BODC series reference number 503304
5033161986-09-21 13:12 41° 29' 30" N  9° 38' 37" W  View metadata report for BODC series reference number 503316
5033281986-09-21 13:24 41° 29' 31" N  9° 40' 25" W  View metadata report for BODC series reference number 503328
5033411986-09-21 13:36 41° 29' 31" N  9° 42' 7" W  View metadata report for BODC series reference number 503341
5033531986-09-21 13:48 41° 29' 32" N  9° 43' 55" W  View metadata report for BODC series reference number 503353
5033651986-09-21 14:00 41° 29' 33" N  9° 45' 45" W  View metadata report for BODC series reference number 503365
5033771986-09-21 14:12 41° 29' 36" N  9° 47' 35" W  View metadata report for BODC series reference number 503377
5033891986-09-21 14:24 41° 29' 37" N  9° 49' 27" W  View metadata report for BODC series reference number 503389
5033901986-09-21 14:36 41° 29' 38" N  9° 51' 16" W  View metadata report for BODC series reference number 503390
5034081986-09-21 14:48 41° 29' 40" N  9° 53' 18" W  View metadata report for BODC series reference number 503408
5034211986-09-21 15:00 41° 29' 44" N  9° 55' 21" W  View metadata report for BODC series reference number 503421
5034331986-09-21 15:12 41° 29' 49" N  9° 57' 24" W  View metadata report for BODC series reference number 503433
5034451986-09-21 15:24 41° 29' 51" N  9° 59' 27" W  View metadata report for BODC series reference number 503445
5034571986-09-21 15:36 41° 29' 53" N  10° 1' 21" W  View metadata report for BODC series reference number 503457
5034691986-09-21 15:48 41° 29' 58" N  10° 2' 48" W  View metadata report for BODC series reference number 503469
5034701986-09-21 16:00 41° 30' 1" N  10° 4' 33" W  View metadata report for BODC series reference number 503470
5034821986-09-21 16:12 41° 30' 6" N  10° 6' 28" W  View metadata report for BODC series reference number 503482
5034941986-09-21 16:24 41° 30' 10" N  10° 8' 9" W  View metadata report for BODC series reference number 503494
5035011986-09-21 16:36 41° 30' 15" N  10° 9' 50" W  View metadata report for BODC series reference number 503501
5035131986-09-21 16:48 41° 30' 22" N  10° 11' 31" W  View metadata report for BODC series reference number 503513
5035251986-09-21 17:00 41° 30' 29" N  10° 13' 13" W  View metadata report for BODC series reference number 503525
5035371986-09-21 17:12 41° 30' 36" N  10° 14' 58" W  View metadata report for BODC series reference number 503537
5035491986-09-21 17:24 41° 30' 42" N  10° 16' 51" W  View metadata report for BODC series reference number 503549
5035501986-09-21 17:36 41° 30' 48" N  10° 18' 43" W  View metadata report for BODC series reference number 503550
5035621986-09-21 17:48 41° 30' 52" N  10° 20' 36" W  View metadata report for BODC series reference number 503562
5035741986-09-21 18:00 41° 30' 54" N  10° 22' 29" W  View metadata report for BODC series reference number 503574
5035861986-09-21 18:12 41° 30' 56" N  10° 24' 1" W  View metadata report for BODC series reference number 503586
5035981986-09-21 18:24 41° 31' 0" N  10° 25' 34" W  View metadata report for BODC series reference number 503598
5036051986-09-21 18:36 41° 31' 3" N  10° 27' 13" W  View metadata report for BODC series reference number 503605
5036171986-09-21 18:48 41° 31' 7" N  10° 28' 58" W  View metadata report for BODC series reference number 503617
5036291986-09-21 19:00 41° 31' 9" N  10° 30' 42" W  View metadata report for BODC series reference number 503629
5036301986-09-21 19:12 41° 31' 8" N  10° 32' 29" W  View metadata report for BODC series reference number 503630
5036421986-09-21 19:24 41° 31' 8" N  10° 34' 19" W  View metadata report for BODC series reference number 503642
5036541986-09-21 19:36 41° 31' 6" N  10° 36' 7" W  View metadata report for BODC series reference number 503654
5036661986-09-21 19:48 41° 31' 3" N  10° 37' 57" W  View metadata report for BODC series reference number 503666
5036781986-09-21 20:00 41° 31' 2" N  10° 39' 47" W  View metadata report for BODC series reference number 503678
5036911986-09-21 20:12 41° 31' 1" N  10° 41' 38" W  View metadata report for BODC series reference number 503691
5037091986-09-21 20:24 41° 30' 59" N  10° 43' 28" W  View metadata report for BODC series reference number 503709
5037101986-09-21 20:36 41° 30' 56" N  10° 45' 18" W  View metadata report for BODC series reference number 503710
5037221986-09-21 20:48 41° 30' 54" N  10° 47' 8" W  View metadata report for BODC series reference number 503722
5037341986-09-21 21:00 41° 30' 52" N  10° 48' 58" W  View metadata report for BODC series reference number 503734
5037461986-09-21 21:12 41° 30' 49" N  10° 50' 47" W  View metadata report for BODC series reference number 503746
5037581986-09-21 21:24 41° 30' 42" N  10° 52' 33" W  View metadata report for BODC series reference number 503758
5037711986-09-21 21:36 41° 30' 40" N  10° 54' 22" W  View metadata report for BODC series reference number 503771
5037831986-09-21 21:48 41° 30' 40" N  10° 56' 11" W  View metadata report for BODC series reference number 503783
5037951986-09-21 22:00 41° 30' 33" N  10° 58' 8" W  View metadata report for BODC series reference number 503795
5038021986-09-21 22:12 41° 30' 31" N  11° 0' 8" W  View metadata report for BODC series reference number 503802
5038141986-09-21 22:24 41° 30' 28" N  11° 2' 7" W  View metadata report for BODC series reference number 503814
5038261986-09-21 22:36 41° 30' 24" N  11° 4' 7" W  View metadata report for BODC series reference number 503826
5038381986-09-21 22:48 41° 30' 21" N  11° 6' 15" W  View metadata report for BODC series reference number 503838
5038511986-09-21 23:00 41° 30' 3" N  11° 8' 20" W  View metadata report for BODC series reference number 503851
5038631986-09-22 05:48 40° 43' 4" N  11° 3' 30" W  View metadata report for BODC series reference number 503863
5038751986-09-22 06:00 40° 43' 2" N  11° 1' 31" W  View metadata report for BODC series reference number 503875
5038871986-09-22 06:12 40° 43' 11" N  10° 59' 32" W  View metadata report for BODC series reference number 503887
5038991986-09-22 06:24 40° 43' 20" N  10° 57' 34" W  View metadata report for BODC series reference number 503899
5039061986-09-22 06:36 40° 43' 25" N  10° 55' 34" W  View metadata report for BODC series reference number 503906
5039181986-09-22 06:48 40° 43' 32" N  10° 53' 35" W  View metadata report for BODC series reference number 503918
5039311986-09-22 07:00 40° 43' 38" N  10° 51' 36" W  View metadata report for BODC series reference number 503931
5039431986-09-22 07:12 40° 43' 46" N  10° 49' 37" W  View metadata report for BODC series reference number 503943
5039551986-09-22 07:24 40° 43' 54" N  10° 47' 38" W  View metadata report for BODC series reference number 503955
5039671986-09-22 07:36 40° 44' 1" N  10° 45' 39" W  View metadata report for BODC series reference number 503967
5039791986-09-22 07:48 40° 44' 7" N  10° 43' 40" W  View metadata report for BODC series reference number 503979
5039801986-09-22 08:00 40° 44' 13" N  10° 41' 42" W  View metadata report for BODC series reference number 503980
5039921986-09-23 10:24 40° 44' 44" N  10° 25' 0" W  View metadata report for BODC series reference number 503992
5040061986-09-23 10:36 40° 44' 17" N  10° 23' 24" W  View metadata report for BODC series reference number 504006
5040181986-09-23 10:48 40° 44' 16" N  10° 21' 37" W  View metadata report for BODC series reference number 504018
5040311986-09-23 11:00 40° 44' 13" N  10° 19' 50" W  View metadata report for BODC series reference number 504031
5040431986-09-23 11:12 40° 44' 12" N  10° 18' 4" W  View metadata report for BODC series reference number 504043
5040551986-09-23 11:24 40° 44' 11" N  10° 16' 18" W  View metadata report for BODC series reference number 504055
5040671986-09-23 11:36 40° 44' 8" N  10° 14' 31" W  View metadata report for BODC series reference number 504067
5040791986-09-23 11:48 40° 44' 7" N  10° 12' 42" W  View metadata report for BODC series reference number 504079
5040801986-09-23 12:00 40° 44' 7" N  10° 10' 49" W  View metadata report for BODC series reference number 504080
5040921986-09-23 12:12 40° 44' 5" N  10° 8' 56" W  View metadata report for BODC series reference number 504092
5041111986-09-23 12:24 40° 44' 5" N  10° 7' 3" W  View metadata report for BODC series reference number 504111
5041231986-09-25 19:48 37° 29' 38" N  9° 51' 13" W  View metadata report for BODC series reference number 504123
5041351986-09-25 20:00 37° 29' 32" N  9° 52' 59" W  View metadata report for BODC series reference number 504135
5041471986-09-25 20:12 37° 29' 29" N  9° 54' 46" W  View metadata report for BODC series reference number 504147
5041591986-09-25 20:24 37° 29' 26" N  9° 56' 35" W  View metadata report for BODC series reference number 504159
5041601986-09-25 20:36 37° 29' 26" N  9° 58' 26" W  View metadata report for BODC series reference number 504160
5041721986-09-25 20:48 37° 29' 23" N  10° 0' 20" W  View metadata report for BODC series reference number 504172
5041841986-09-25 21:00 37° 29' 16" N  10° 2' 9" W  View metadata report for BODC series reference number 504184
5041961986-09-25 21:12 37° 29' 10" N  10° 3' 55" W  View metadata report for BODC series reference number 504196
5042031986-09-25 21:24 37° 29' 4" N  10° 5' 43" W  View metadata report for BODC series reference number 504203
5042151986-09-25 21:36 37° 28' 57" N  10° 7' 29" W  View metadata report for BODC series reference number 504215
5042271986-09-25 21:48 37° 28' 49" N  10° 9' 14" W  View metadata report for BODC series reference number 504227
5042391986-09-25 22:00 37° 28' 43" N  10° 11' 2" W  View metadata report for BODC series reference number 504239
5042401986-09-25 22:12 37° 28' 35" N  10° 12' 49" W  View metadata report for BODC series reference number 504240
5042521986-09-25 22:24 37° 28' 25" N  10° 14' 37" W  View metadata report for BODC series reference number 504252
5042641986-09-25 22:36 37° 28' 16" N  10° 16' 26" W  View metadata report for BODC series reference number 504264
5042761986-09-25 22:48 37° 28' 13" N  10° 18' 29" W  View metadata report for BODC series reference number 504276
5042881986-09-25 23:00 37° 28' 14" N  10° 20' 37" W  View metadata report for BODC series reference number 504288
5043071986-09-25 23:12 37° 28' 4" N  10° 22' 25" W  View metadata report for BODC series reference number 504307
5043191986-09-25 23:24 37° 27' 53" N  10° 24' 12" W  View metadata report for BODC series reference number 504319
5043201986-09-25 23:36 37° 27' 43" N  10° 26' 3" W  View metadata report for BODC series reference number 504320
5043321986-09-25 23:48 37° 27' 34" N  10° 27' 52" W  View metadata report for BODC series reference number 504332
5043441986-09-26 00:00 37° 27' 27" N  10° 29' 40" W  View metadata report for BODC series reference number 504344
5043561986-09-26 00:12 37° 27' 34" N  10° 31' 22" W  View metadata report for BODC series reference number 504356
4970871986-09-24 06:48 41° 45' 58" N  9° 42' 49" W  View metadata report for BODC series reference number 497087
4970991986-09-24 07:00 41° 44' 34" N  9° 42' 42" W  View metadata report for BODC series reference number 497099
4971061986-09-24 07:12 41° 43' 10" N  9° 42' 34" W  View metadata report for BODC series reference number 497106
4971181986-09-24 07:24 41° 41' 46" N  9° 42' 30" W  View metadata report for BODC series reference number 497118
4971311986-09-24 07:36 41° 40' 22" N  9° 42' 29" W  View metadata report for BODC series reference number 497131
4971431986-09-24 07:48 41° 38' 58" N  9° 42' 27" W  View metadata report for BODC series reference number 497143
4971551986-09-24 08:00 41° 37' 33" N  9° 42' 27" W  View metadata report for BODC series reference number 497155
4971671986-09-24 08:12 41° 36' 9" N  9° 42' 27" W  View metadata report for BODC series reference number 497167
4971791986-09-24 08:24 41° 34' 45" N  9° 42' 28" W  View metadata report for BODC series reference number 497179
4971801986-09-24 08:36 41° 33' 22" N  9° 42' 32" W  View metadata report for BODC series reference number 497180
4971921986-09-24 08:48 41° 31' 58" N  9° 42' 34" W  View metadata report for BODC series reference number 497192
4972111986-09-24 09:00 41° 30' 35" N  9° 42' 39" W  View metadata report for BODC series reference number 497211
4972231986-09-24 09:12 41° 29' 11" N  9° 42' 41" W  View metadata report for BODC series reference number 497223
4972351986-09-24 09:24 41° 27' 46" N  9° 42' 36" W  View metadata report for BODC series reference number 497235
4972471986-09-24 09:36 41° 26' 21" N  9° 42' 34" W  View metadata report for BODC series reference number 497247
4972591986-09-24 09:48 41° 24' 55" N  9° 42' 30" W  View metadata report for BODC series reference number 497259
4972601986-09-24 10:00 41° 23' 29" N  9° 42' 25" W  View metadata report for BODC series reference number 497260
4972721986-09-24 10:12 41° 22' 3" N  9° 42' 20" W  View metadata report for BODC series reference number 497272
4972841986-09-24 10:24 41° 20' 39" N  9° 42' 14" W  View metadata report for BODC series reference number 497284
4972961986-09-24 10:36 41° 19' 13" N  9° 42' 12" W  View metadata report for BODC series reference number 497296
4973031986-09-24 10:48 41° 17' 48" N  9° 42' 11" W  View metadata report for BODC series reference number 497303
4973151986-09-24 11:00 41° 16' 22" N  9° 42' 11" W  View metadata report for BODC series reference number 497315
4973271986-09-24 11:12 41° 14' 56" N  9° 42' 11" W  View metadata report for BODC series reference number 497327
4973391986-09-24 11:24 41° 13' 30" N  9° 42' 12" W  View metadata report for BODC series reference number 497339
4973401986-09-24 11:36 41° 12' 4" N  9° 42' 12" W  View metadata report for BODC series reference number 497340
4973521986-09-24 11:48 41° 10' 38" N  9° 42' 11" W  View metadata report for BODC series reference number 497352
4973641986-09-24 12:00 41° 9' 12" N  9° 42' 11" W  View metadata report for BODC series reference number 497364
4973761986-09-24 12:12 41° 7' 46" N  9° 42' 10" W  View metadata report for BODC series reference number 497376
4973881986-09-24 12:24 41° 6' 21" N  9° 42' 10" W  View metadata report for BODC series reference number 497388
4974071986-09-24 12:36 41° 4' 55" N  9° 42' 10" W  View metadata report for BODC series reference number 497407
4974191986-09-24 12:48 41° 3' 31" N  9° 42' 11" W  View metadata report for BODC series reference number 497419
4974201986-09-24 13:00 41° 2' 6" N  9° 42' 13" W  View metadata report for BODC series reference number 497420
4974321986-09-24 13:12 41° 0' 42" N  9° 42' 13" W  View metadata report for BODC series reference number 497432
4974441986-09-24 13:24 40° 59' 17" N  9° 42' 13" W  View metadata report for BODC series reference number 497444
4974561986-09-24 13:36 40° 57' 52" N  9° 42' 16" W  View metadata report for BODC series reference number 497456
4974681986-09-24 13:48 40° 56' 28" N  9° 42' 21" W  View metadata report for BODC series reference number 497468
4974811986-09-24 14:00 40° 55' 4" N  9° 42' 26" W  View metadata report for BODC series reference number 497481
4974931986-09-24 14:12 40° 53' 40" N  9° 42' 30" W  View metadata report for BODC series reference number 497493
4975001986-09-24 14:24 40° 52' 17" N  9° 42' 24" W  View metadata report for BODC series reference number 497500
4975121986-09-24 14:36 40° 50' 53" N  9° 42' 7" W  View metadata report for BODC series reference number 497512
4975241986-09-24 14:48 40° 49' 28" N  9° 41' 59" W  View metadata report for BODC series reference number 497524
4975361986-09-24 15:00 40° 48' 2" N  9° 41' 58" W  View metadata report for BODC series reference number 497536
4975481986-09-24 15:12 40° 46' 35" N  9° 41' 58" W  View metadata report for BODC series reference number 497548
4975611986-09-24 15:24 40° 45' 8" N  9° 41' 58" W  View metadata report for BODC series reference number 497561
4975731986-09-24 15:36 40° 43' 41" N  9° 42' 0" W  View metadata report for BODC series reference number 497573
4975851986-09-23 12:48 40° 46' 20" N  10° 5' 16" W  View metadata report for BODC series reference number 497585
4975971986-09-23 13:00 40° 47' 51" N  10° 5' 23" W  View metadata report for BODC series reference number 497597
4976041986-09-23 13:12 40° 49' 22" N  10° 5' 28" W  View metadata report for BODC series reference number 497604
4976161986-09-23 13:24 40° 50' 54" N  10° 5' 23" W  View metadata report for BODC series reference number 497616
4976281986-09-23 13:36 40° 52' 24" N  10° 5' 13" W  View metadata report for BODC series reference number 497628
4976411986-09-23 13:48 40° 53' 53" N  10° 4' 55" W  View metadata report for BODC series reference number 497641
4976531986-09-23 14:00 40° 55' 22" N  10° 4' 37" W  View metadata report for BODC series reference number 497653
4976651986-09-23 14:12 40° 56' 51" N  10° 4' 28" W  View metadata report for BODC series reference number 497665
4976771986-09-23 14:24 40° 58' 20" N  10° 4' 10" W  View metadata report for BODC series reference number 497677
4976891986-09-23 14:36 40° 59' 48" N  10° 3' 50" W  View metadata report for BODC series reference number 497689
4976901986-09-23 14:48 41° 1' 17" N  10° 3' 33" W  View metadata report for BODC series reference number 497690
4977081986-09-23 15:00 41° 2' 47" N  10° 3' 15" W  View metadata report for BODC series reference number 497708
4977211986-09-23 15:12 41° 4' 17" N  10° 2' 58" W  View metadata report for BODC series reference number 497721
4977331986-09-23 15:24 41° 5' 44" N  10° 2' 35" W  View metadata report for BODC series reference number 497733
4977451986-09-23 15:36 41° 7' 10" N  10° 2' 10" W  View metadata report for BODC series reference number 497745
4977571986-09-23 15:48 41° 8' 37" N  10° 1' 50" W  View metadata report for BODC series reference number 497757
4977691986-09-23 16:00 41° 10' 5" N  10° 1' 44" W  View metadata report for BODC series reference number 497769
4977701986-09-23 16:12 41° 11' 31" N  10° 1' 39" W  View metadata report for BODC series reference number 497770
4977821986-09-23 16:24 41° 12' 58" N  10° 1' 34" W  View metadata report for BODC series reference number 497782
4977941986-09-23 16:36 41° 14' 25" N  10° 1' 30" W  View metadata report for BODC series reference number 497794
4978011986-09-23 16:48 41° 15' 52" N  10° 1' 25" W  View metadata report for BODC series reference number 497801
4978131986-09-23 17:00 41° 17' 19" N  10° 1' 23" W  View metadata report for BODC series reference number 497813
4978251986-09-23 17:12 41° 18' 46" N  10° 1' 17" W  View metadata report for BODC series reference number 497825
4978371986-09-23 17:24 41° 20' 12" N  10° 1' 7" W  View metadata report for BODC series reference number 497837
4978491986-09-23 17:36 41° 21' 38" N  10° 1' 1" W  View metadata report for BODC series reference number 497849
4978501986-09-23 17:48 41° 23' 4" N  10° 0' 57" W  View metadata report for BODC series reference number 497850
4978621986-09-23 18:00 41° 24' 30" N  10° 0' 52" W  View metadata report for BODC series reference number 497862
4978741986-09-23 18:12 41° 25' 55" N  10° 0' 45" W  View metadata report for BODC series reference number 497874
4978861986-09-23 18:24 41° 27' 21" N  10° 0' 41" W  View metadata report for BODC series reference number 497886
4978981986-09-23 18:36 41° 28' 47" N  10° 0' 35" W  View metadata report for BODC series reference number 497898
4979051986-09-23 18:48 41° 30' 11" N  10° 0' 32" W  View metadata report for BODC series reference number 497905
4979171986-09-23 19:00 41° 31' 36" N  10° 0' 29" W  View metadata report for BODC series reference number 497917
4979291986-09-23 19:12 41° 33' 0" N  10° 0' 28" W  View metadata report for BODC series reference number 497929
4979301986-09-23 19:24 41° 34' 23" N  10° 0' 19" W  View metadata report for BODC series reference number 497930
4979421986-09-23 19:36 41° 35' 46" N  10° 0' 9" W  View metadata report for BODC series reference number 497942
4979541986-09-23 19:48 41° 37' 10" N  9° 59' 57" W  View metadata report for BODC series reference number 497954
4979661986-09-23 20:00 41° 38' 33" N  9° 59' 47" W  View metadata report for BODC series reference number 497966
4979781986-09-23 20:12 41° 39' 56" N  9° 59' 35" W  View metadata report for BODC series reference number 497978
4979911986-09-23 20:24 41° 41' 20" N  9° 59' 24" W  View metadata report for BODC series reference number 497991
4980051986-09-23 20:36 41° 42' 44" N  9° 59' 11" W  View metadata report for BODC series reference number 498005
4980171986-09-23 20:48 41° 44' 7" N  9° 58' 59" W  View metadata report for BODC series reference number 498017
4980291986-09-23 21:00 41° 45' 31" N  9° 58' 48" W  View metadata report for BODC series reference number 498029
4980301986-09-23 21:12 41° 46' 55" N  9° 58' 58" W  View metadata report for BODC series reference number 498030
4980421986-09-23 21:24 41° 48' 18" N  9° 59' 12" W  View metadata report for BODC series reference number 498042
4980541986-09-23 21:36 41° 49' 41" N  9° 59' 9" W  View metadata report for BODC series reference number 498054
4980661986-09-23 21:48 41° 51' 3" N  9° 59' 8" W  View metadata report for BODC series reference number 498066
4980781986-09-23 22:00 41° 52' 25" N  9° 59' 8" W  View metadata report for BODC series reference number 498078
4980911986-09-23 22:12 41° 53' 48" N  9° 59' 7" W  View metadata report for BODC series reference number 498091
4981091986-09-23 22:24 41° 55' 10" N  9° 59' 5" W  View metadata report for BODC series reference number 498109
4981101986-09-23 22:36 41° 56' 33" N  9° 59' 1" W  View metadata report for BODC series reference number 498110
4981221986-09-23 22:48 41° 57' 56" N  9° 58' 58" W  View metadata report for BODC series reference number 498122
4981341986-09-23 23:00 41° 59' 21" N  9° 58' 51" W  View metadata report for BODC series reference number 498134
4981461986-09-23 23:12 42° 0' 50" N  9° 58' 49" W  View metadata report for BODC series reference number 498146
4981581986-09-23 23:24 42° 2' 22" N  9° 58' 54" W  View metadata report for BODC series reference number 498158
4981711986-09-23 23:36 42° 3' 54" N  9° 58' 58" W  View metadata report for BODC series reference number 498171
4981831986-09-23 23:48 42° 5' 26" N  9° 59' 4" W  View metadata report for BODC series reference number 498183
4981951986-09-24 00:00 42° 6' 59" N  9° 59' 7" W  View metadata report for BODC series reference number 498195
4982021986-09-24 00:12 42° 8' 30" N  9° 59' 4" W  View metadata report for BODC series reference number 498202
4982141986-09-24 00:24 42° 10' 2" N  9° 59' 4" W  View metadata report for BODC series reference number 498214
4982261986-09-24 00:36 42° 11' 35" N  9° 59' 6" W  View metadata report for BODC series reference number 498226
4982381986-09-24 00:48 42° 13' 1" N  9° 59' 8" W  View metadata report for BODC series reference number 498238
4982511986-09-24 01:00 42° 14' 26" N  9° 59' 4" W  View metadata report for BODC series reference number 498251
4982631986-09-22 22:00 42° 13' 19" N  10° 25' 19" W  View metadata report for BODC series reference number 498263
4982751986-09-22 22:12 42° 11' 54" N  10° 25' 14" W  View metadata report for BODC series reference number 498275
4982871986-09-22 22:24 42° 10' 28" N  10° 25' 9" W  View metadata report for BODC series reference number 498287
4982991986-09-22 22:36 42° 9' 3" N  10° 25' 3" W  View metadata report for BODC series reference number 498299
4983061986-09-22 22:48 42° 7' 37" N  10° 24' 58" W  View metadata report for BODC series reference number 498306
4983181986-09-22 23:00 42° 6' 11" N  10° 24' 51" W  View metadata report for BODC series reference number 498318
4983311986-09-22 23:12 42° 4' 45" N  10° 24' 42" W  View metadata report for BODC series reference number 498331
4983431986-09-22 23:24 42° 3' 19" N  10° 24' 30" W  View metadata report for BODC series reference number 498343
4983551986-09-22 23:36 42° 1' 52" N  10° 24' 22" W  View metadata report for BODC series reference number 498355
4983671986-09-22 23:48 42° 0' 26" N  10° 24' 11" W  View metadata report for BODC series reference number 498367
4983791986-09-23 00:00 41° 59' 0" N  10° 24' 5" W  View metadata report for BODC series reference number 498379
4983801986-09-23 00:12 41° 57' 33" N  10° 24' 7" W  View metadata report for BODC series reference number 498380
4983921986-09-23 00:24 41° 56' 6" N  10° 24' 14" W  View metadata report for BODC series reference number 498392
4984111986-09-23 00:36 41° 54' 39" N  10° 24' 15" W  View metadata report for BODC series reference number 498411
4984231986-09-23 00:48 41° 53' 12" N  10° 24' 16" W  View metadata report for BODC series reference number 498423
4984351986-09-23 01:00 41° 51' 44" N  10° 24' 15" W  View metadata report for BODC series reference number 498435
4984471986-09-23 01:12 41° 50' 17" N  10° 24' 9" W  View metadata report for BODC series reference number 498447
4984591986-09-23 01:24 41° 48' 51" N  10° 24' 0" W  View metadata report for BODC series reference number 498459
4984601986-09-23 01:36 41° 47' 27" N  10° 23' 52" W  View metadata report for BODC series reference number 498460
4984721986-09-23 01:48 41° 46' 6" N  10° 23' 43" W  View metadata report for BODC series reference number 498472
4984841986-09-23 02:00 41° 44' 45" N  10° 23' 35" W  View metadata report for BODC series reference number 498484
4984961986-09-23 02:12 41° 43' 25" N  10° 23' 25" W  View metadata report for BODC series reference number 498496
4985031986-09-23 02:24 41° 42' 4" N  10° 23' 21" W  View metadata report for BODC series reference number 498503
4985151986-09-23 02:36 41° 40' 43" N  10° 23' 20" W  View metadata report for BODC series reference number 498515
4985271986-09-23 02:48 41° 39' 21" N  10° 23' 18" W  View metadata report for BODC series reference number 498527
4985391986-09-23 03:00 41° 37' 59" N  10° 23' 18" W  View metadata report for BODC series reference number 498539
4985401986-09-23 03:12 41° 36' 37" N  10° 23' 18" W  View metadata report for BODC series reference number 498540
4985521986-09-23 03:24 41° 35' 15" N  10° 23' 28" W  View metadata report for BODC series reference number 498552
4985641986-09-23 03:36 41° 33' 53" N  10° 23' 41" W  View metadata report for BODC series reference number 498564
4985761986-09-23 03:48 41° 32' 31" N  10° 23' 55" W  View metadata report for BODC series reference number 498576
4985881986-09-23 04:00 41° 31' 9" N  10° 24' 5" W  View metadata report for BODC series reference number 498588
4986071986-09-23 04:12 41° 29' 41" N  10° 24' 7" W  View metadata report for BODC series reference number 498607
4986191986-09-23 04:24 41° 28' 13" N  10° 24' 7" W  View metadata report for BODC series reference number 498619
4986201986-09-23 04:36 41° 26' 46" N  10° 24' 6" W  View metadata report for BODC series reference number 498620
4986321986-09-23 04:48 41° 25' 19" N  10° 24' 7" W  View metadata report for BODC series reference number 498632
4986441986-09-23 05:00 41° 23' 51" N  10° 24' 7" W  View metadata report for BODC series reference number 498644
4986561986-09-23 05:12 41° 22' 23" N  10° 24' 9" W  View metadata report for BODC series reference number 498656
4986681986-09-23 05:24 41° 20' 55" N  10° 24' 11" W  View metadata report for BODC series reference number 498668
4986811986-09-23 05:36 41° 19' 28" N  10° 24' 13" W  View metadata report for BODC series reference number 498681
4986931986-09-23 05:48 41° 17' 59" N  10° 24' 15" W  View metadata report for BODC series reference number 498693
4987001986-09-23 06:00 41° 16' 25" N  10° 24' 27" W  View metadata report for BODC series reference number 498700
4987121986-09-23 06:12 41° 14' 59" N  10° 24' 42" W  View metadata report for BODC series reference number 498712
4987241986-09-23 06:24 41° 13' 34" N  10° 24' 56" W  View metadata report for BODC series reference number 498724
4987361986-09-23 06:36 41° 12' 10" N  10° 25' 5" W  View metadata report for BODC series reference number 498736
4987481986-09-23 06:48 41° 10' 46" N  10° 25' 17" W  View metadata report for BODC series reference number 498748
4987611986-09-23 07:00 41° 9' 20" N  10° 25' 31" W  View metadata report for BODC series reference number 498761
4987731986-09-23 07:12 41° 7' 55" N  10° 25' 43" W  View metadata report for BODC series reference number 498773
4987851986-09-23 07:24 41° 6' 31" N  10° 25' 54" W  View metadata report for BODC series reference number 498785
4987971986-09-23 07:36 41° 5' 6" N  10° 26' 3" W  View metadata report for BODC series reference number 498797
4988041986-09-23 07:48 41° 3' 42" N  10° 26' 15" W  View metadata report for BODC series reference number 498804
4988161986-09-23 08:00 41° 2' 17" N  10° 26' 23" W  View metadata report for BODC series reference number 498816
4988281986-09-23 08:12 41° 0' 54" N  10° 26' 23" W  View metadata report for BODC series reference number 498828
4988411986-09-23 08:24 40° 59' 31" N  10° 26' 42" W  View metadata report for BODC series reference number 498841
4988531986-09-23 08:36 40° 58' 10" N  10° 26' 40" W  View metadata report for BODC series reference number 498853
4988651986-09-23 08:48 40° 56' 43" N  10° 26' 34" W  View metadata report for BODC series reference number 498865
4988771986-09-23 09:00 40° 55' 15" N  10° 26' 28" W  View metadata report for BODC series reference number 498877
4988891986-09-23 09:12 40° 53' 48" N  10° 26' 17" W  View metadata report for BODC series reference number 498889
4988901986-09-23 09:24 40° 52' 21" N  10° 26' 4" W  View metadata report for BODC series reference number 498890
4989081986-09-23 09:36 40° 50' 55" N  10° 25' 47" W  View metadata report for BODC series reference number 498908
4989211986-09-23 09:48 40° 49' 24" N  10° 25' 33" W  View metadata report for BODC series reference number 498921
4989331986-09-23 10:00 40° 47' 50" N  10° 25' 27" W  View metadata report for BODC series reference number 498933
4989451986-09-23 10:12 40° 46' 16" N  10° 25' 18" W  View metadata report for BODC series reference number 498945
4989571986-09-22 08:00 40° 44' 13" N  10° 41' 42" W  View metadata report for BODC series reference number 498957
4962071986-09-20 23:00 42° 47' 44" N  9° 41' 0" W  View metadata report for BODC series reference number 496207
4962191986-09-20 23:12 42° 46' 58" N  9° 40' 45" W  View metadata report for BODC series reference number 496219
4962201986-09-20 23:24 42° 46' 12" N  9° 40' 27" W  View metadata report for BODC series reference number 496220
4962321986-09-20 23:36 42° 45' 13" N  9° 40' 8" W  View metadata report for BODC series reference number 496232
4962441986-09-20 23:48 42° 43' 49" N  9° 40' 5" W  View metadata report for BODC series reference number 496244
4962561986-09-21 00:00 42° 42' 22" N  9° 40' 3" W  View metadata report for BODC series reference number 496256
4962681986-09-21 00:12 42° 40' 55" N  9° 40' 0" W  View metadata report for BODC series reference number 496268
4962811986-09-21 00:24 42° 39' 27" N  9° 39' 55" W  View metadata report for BODC series reference number 496281
4962931986-09-21 00:36 42° 38' 19" N  9° 39' 45" W  View metadata report for BODC series reference number 496293
4963001986-09-21 00:48 42° 37' 15" N  9° 39' 34" W  View metadata report for BODC series reference number 496300
4963121986-09-21 01:00 42° 36' 5" N  9° 39' 22" W  View metadata report for BODC series reference number 496312
4963241986-09-21 01:12 42° 34' 55" N  9° 39' 10" W  View metadata report for BODC series reference number 496324
4963361986-09-21 01:24 42° 33' 44" N  9° 39' 0" W  View metadata report for BODC series reference number 496336
4963481986-09-21 01:36 42° 32' 28" N  9° 38' 46" W  View metadata report for BODC series reference number 496348
4963611986-09-21 01:48 42° 31' 12" N  9° 38' 32" W  View metadata report for BODC series reference number 496361
4963731986-09-21 02:00 42° 29' 55" N  9° 38' 19" W  View metadata report for BODC series reference number 496373
4963851986-09-21 02:12 42° 28' 40" N  9° 38' 6" W  View metadata report for BODC series reference number 496385
4963971986-09-21 02:24 42° 27' 24" N  9° 37' 54" W  View metadata report for BODC series reference number 496397
4964041986-09-21 02:36 42° 26' 7" N  9° 37' 40" W  View metadata report for BODC series reference number 496404
4964161986-09-21 02:48 42° 24' 52" N  9° 37' 27" W  View metadata report for BODC series reference number 496416
4964281986-09-21 03:00 42° 23' 35" N  9° 37' 14" W  View metadata report for BODC series reference number 496428
4964411986-09-21 03:12 42° 22' 19" N  9° 37' 0" W  View metadata report for BODC series reference number 496441
4964531986-09-21 03:24 42° 21' 4" N  9° 36' 45" W  View metadata report for BODC series reference number 496453
4964651986-09-21 03:36 42° 19' 53" N  9° 36' 25" W  View metadata report for BODC series reference number 496465
4964771986-09-21 03:48 42° 18' 42" N  9° 36' 7" W  View metadata report for BODC series reference number 496477
4964891986-09-21 04:00 42° 17' 32" N  9° 35' 48" W  View metadata report for BODC series reference number 496489
4964901986-09-21 04:12 42° 16' 21" N  9° 35' 32" W  View metadata report for BODC series reference number 496490
4965081986-09-21 04:24 42° 15' 7" N  9° 35' 15" W  View metadata report for BODC series reference number 496508
4965211986-09-21 04:36 42° 13' 54" N  9° 34' 59" W  View metadata report for BODC series reference number 496521
4965331986-09-21 04:48 42° 12' 41" N  9° 34' 44" W  View metadata report for BODC series reference number 496533
4965451986-09-21 05:00 42° 11' 27" N  9° 34' 33" W  View metadata report for BODC series reference number 496545
4965571986-09-21 05:12 42° 10' 13" N  9° 34' 20" W  View metadata report for BODC series reference number 496557
4965691986-09-21 05:24 42° 8' 58" N  9° 34' 9" W  View metadata report for BODC series reference number 496569
4965701986-09-21 05:36 42° 7' 43" N  9° 33' 58" W  View metadata report for BODC series reference number 496570
4965821986-09-21 05:48 42° 6' 28" N  9° 33' 46" W  View metadata report for BODC series reference number 496582
4965941986-09-21 06:00 42° 5' 13" N  9° 33' 33" W  View metadata report for BODC series reference number 496594
4966011986-09-21 06:12 42° 3' 58" N  9° 33' 18" W  View metadata report for BODC series reference number 496601
4966131986-09-21 06:24 42° 2' 42" N  9° 33' 7" W  View metadata report for BODC series reference number 496613
4966251986-09-21 06:36 42° 1' 27" N  9° 32' 53" W  View metadata report for BODC series reference number 496625
4966371986-09-21 06:48 42° 0' 13" N  9° 32' 38" W  View metadata report for BODC series reference number 496637
4966491986-09-21 07:00 41° 59' 3" N  9° 32' 24" W  View metadata report for BODC series reference number 496649
4966501986-09-21 07:12 41° 57' 51" N  9° 32' 12" W  View metadata report for BODC series reference number 496650
4966621986-09-21 07:24 41° 56' 39" N  9° 31' 55" W  View metadata report for BODC series reference number 496662
4966741986-09-21 07:36 41° 55' 27" N  9° 31' 31" W  View metadata report for BODC series reference number 496674
4966861986-09-21 07:48 41° 54' 15" N  9° 31' 6" W  View metadata report for BODC series reference number 496686
4966981986-09-21 08:00 41° 53' 3" N  9° 30' 40" W  View metadata report for BODC series reference number 496698
4967051986-09-21 08:12 41° 51' 52" N  9° 30' 0" W  View metadata report for BODC series reference number 496705
4967171986-09-21 08:24 41° 50' 40" N  9° 29' 17" W  View metadata report for BODC series reference number 496717
4967291986-09-21 08:36 41° 49' 25" N  9° 28' 37" W  View metadata report for BODC series reference number 496729
4967301986-09-21 08:48 41° 48' 2" N  9° 28' 10" W  View metadata report for BODC series reference number 496730
4967421986-09-21 09:00 41° 46' 40" N  9° 27' 43" W  View metadata report for BODC series reference number 496742
4967541986-09-21 09:12 41° 45' 18" N  9° 27' 17" W  View metadata report for BODC series reference number 496754
4967661986-09-21 09:24 41° 43' 51" N  9° 26' 49" W  View metadata report for BODC series reference number 496766
4967781986-09-21 09:36 41° 42' 23" N  9° 26' 19" W  View metadata report for BODC series reference number 496778
4967911986-09-21 09:48 41° 40' 56" N  9° 25' 52" W  View metadata report for BODC series reference number 496791
4968091986-09-21 10:00 41° 39' 31" N  9° 25' 27" W  View metadata report for BODC series reference number 496809
4968101986-09-21 10:12 41° 38' 7" N  9° 24' 59" W  View metadata report for BODC series reference number 496810
4968221986-09-21 10:24 41° 36' 42" N  9° 24' 30" W  View metadata report for BODC series reference number 496822
4968341986-09-21 10:36 41° 35' 16" N  9° 24' 4" W  View metadata report for BODC series reference number 496834
4968461986-09-21 10:48 41° 33' 49" N  9° 23' 39" W  View metadata report for BODC series reference number 496846
4968581986-09-21 11:00 41° 32' 25" N  9° 23' 12" W  View metadata report for BODC series reference number 496858
4968711986-09-24 03:00 42° 12' 29" N  9° 43' 10" W  View metadata report for BODC series reference number 496871
4968831986-09-24 03:12 42° 11' 5" N  9° 43' 29" W  View metadata report for BODC series reference number 496883
4968951986-09-24 03:24 42° 9' 42" N  9° 43' 48" W  View metadata report for BODC series reference number 496895
4969021986-09-24 03:36 42° 8' 20" N  9° 43' 49" W  View metadata report for BODC series reference number 496902
4969141986-09-24 03:48 42° 6' 57" N  9° 43' 50" W  View metadata report for BODC series reference number 496914
4969261986-09-24 04:00 42° 5' 35" N  9° 43' 52" W  View metadata report for BODC series reference number 496926
4969381986-09-24 04:12 42° 4' 14" N  9° 43' 47" W  View metadata report for BODC series reference number 496938
4969511986-09-24 04:24 42° 2' 52" N  9° 43' 40" W  View metadata report for BODC series reference number 496951
4969631986-09-24 04:36 42° 1' 31" N  9° 43' 33" W  View metadata report for BODC series reference number 496963
4969751986-09-24 04:48 42° 0' 10" N  9° 43' 27" W  View metadata report for BODC series reference number 496975
4969871986-09-24 05:00 41° 58' 48" N  9° 43' 26" W  View metadata report for BODC series reference number 496987
4969991986-09-24 05:12 41° 57' 27" N  9° 43' 21" W  View metadata report for BODC series reference number 496999
4970021986-09-24 05:24 41° 55' 55" N  9° 43' 28" W  View metadata report for BODC series reference number 497002
4970141986-09-24 05:36 41° 54' 23" N  9° 43' 41" W  View metadata report for BODC series reference number 497014
4970261986-09-24 05:48 41° 52' 57" N  9° 43' 38" W  View metadata report for BODC series reference number 497026
4970381986-09-24 06:00 41° 51' 33" N  9° 43' 27" W  View metadata report for BODC series reference number 497038
4970511986-09-24 06:12 41° 50' 8" N  9° 43' 16" W  View metadata report for BODC series reference number 497051
4970631986-09-24 06:24 41° 48' 45" N  9° 43' 8" W  View metadata report for BODC series reference number 497063
4970751986-09-24 06:36 41° 47' 22" N  9° 42' 58" W  View metadata report for BODC series reference number 497075
36  CTD/STD cast
Vertical spatial coordinates
Salinity of the water column
Temperature of the water column
Vertical spatial coordinates
Salinity of the water column
Temperature of the water column

BODC idDate/TimeLocationDoc.
4750181986-10-02 05:02  — 1986-10-02 06:07 42° 44' 21" N  10° 7' 32" W  View metadata report for BODC series reference number 475018
4750311986-10-02 07:00  — 1986-10-02 08:00 42° 44' 21" N  9° 59' 10" W  View metadata report for BODC series reference number 475031
4750431986-10-02 13:13  — 1986-10-02 14:30 42° 43' 44" N  9° 51' 10" W  View metadata report for BODC series reference number 475043
4750551986-10-02 15:47  — 1986-10-02 16:55 42° 43' 30" N  9° 45' 6" W  View metadata report for BODC series reference number 475055
4750671986-10-02 18:02  — 1986-10-02 19:16 42° 43' 0" N  9° 38' 41" W  View metadata report for BODC series reference number 475067
4750791986-10-02 21:03  — 1986-10-02 21:25 42° 44' 44" N  9° 30' 43" W  View metadata report for BODC series reference number 475079
4750801986-10-02 22:10  — 1986-10-02 22:30 42° 43' 52" N  9° 26' 7" W  View metadata report for BODC series reference number 475080
4750921986-10-02 23:25  — 1986-10-02 23:40 42° 44' 37" N  9° 19' 3" W  View metadata report for BODC series reference number 475092
4748991986-09-29 09:06  — 1986-09-29 10:05 41° 26' 43" N  9° 33' 40" W  View metadata report for BODC series reference number 474899
4749061986-09-29 10:51  — 1986-09-29 11:45 41° 26' 55" N  9° 40' 1" W  View metadata report for BODC series reference number 474906
4749181986-09-29 12:35  — 1986-09-29 13:30 41° 26' 50" N  9° 47' 34" W  View metadata report for BODC series reference number 474918
4749311986-09-29 14:10  — 1986-09-29 15:00 41° 26' 27" N  9° 53' 46" W  View metadata report for BODC series reference number 474931
4749431986-09-29 16:26  — 1986-09-29 17:20 41° 27' 15" N  10° 0' 18" W  View metadata report for BODC series reference number 474943
4749551986-09-29 18:12  — 1986-09-29 19:10 41° 26' 23" N  10° 7' 36" W  View metadata report for BODC series reference number 474955
4749671986-09-29 19:59  — 1986-09-29 21:05 41° 26' 50" N  10° 13' 48" W  View metadata report for BODC series reference number 474967
4749791986-09-29 22:24  — 1986-09-29 23:30 41° 26' 55" N  10° 25' 28" W  View metadata report for BODC series reference number 474979
4749801986-10-01 22:57  — 1986-10-02 00:05 42° 45' 22" N  10° 36' 9" W  View metadata report for BODC series reference number 474980
4749921986-10-02 01:40  — 1986-10-02 02:35 42° 44' 31" N  10° 19' 42" W  View metadata report for BODC series reference number 474992
4750061986-10-02 03:24  — 1986-10-02 04:20 42° 44' 8" N  10° 12' 25" W  View metadata report for BODC series reference number 475006
4747711986-09-28 08:10  — 1986-09-28 09:05 40° 18' 50" N  9° 47' 44" W  View metadata report for BODC series reference number 474771
4747831986-09-28 10:02  — 1986-09-28 10:25 40° 19' 14" N  9° 40' 0" W  View metadata report for BODC series reference number 474783
4747951986-09-28 11:34  — 1986-09-28 11:55 40° 18' 34" N  9° 34' 31" W  View metadata report for BODC series reference number 474795
4748021986-09-28 12:51  — 1986-09-28 13:00 40° 19' 40" N  9° 27' 42" W  View metadata report for BODC series reference number 474802
4748141986-09-28 13:59  — 1986-09-28 14:10 40° 19' 6" N  9° 20' 8" W  View metadata report for BODC series reference number 474814
4748261986-09-28 15:13  — 1986-09-28 15:20 40° 19' 30" N  9° 12' 46" W  View metadata report for BODC series reference number 474826
4748381986-09-28 16:33  — 1986-09-28 16:45 40° 20' 14" N  9° 5' 48" W  View metadata report for BODC series reference number 474838
4748511986-09-29 00:39 41° 21' 10" N  9° 4' 44" W  View metadata report for BODC series reference number 474851
4748631986-09-29 01:42  — 1986-09-29 02:17 41° 26' 50" N  9° 13' 21" W  View metadata report for BODC series reference number 474863
4748751986-09-29 04:28  — 1986-09-29 05:27 41° 26' 15" N  9° 21' 47" W  View metadata report for BODC series reference number 474875
4748871986-09-29 06:46  — 1986-09-29 07:40 41° 26' 48" N  9° 27' 36" W  View metadata report for BODC series reference number 474887
4747091986-09-27 18:11  — 1986-09-27 19:17 40° 8' 15" N  10° 32' 2" W  View metadata report for BODC series reference number 474709
4747101986-09-27 22:07  — 1986-09-27 23:00 40° 18' 30" N  10° 23' 45" W  View metadata report for BODC series reference number 474710
4747221986-09-28 00:37  — 1986-09-28 01:50 40° 18' 39" N  10° 12' 31" W  View metadata report for BODC series reference number 474722
4747341986-09-28 02:54  — 1986-09-28 03:30 40° 19' 11" N  10° 7' 2" W  View metadata report for BODC series reference number 474734
4747461986-09-28 04:40  — 1986-09-28 05:35 40° 18' 45" N  10° 1' 6" W  View metadata report for BODC series reference number 474746
4747581986-09-28 06:34  — 1986-09-28 07:15 40° 18' 33" N  9° 54' 29" W  View metadata report for BODC series reference number 474758